Terminal Aerodrome Forecast
Issued by NWS Memphis, TN

Home | Current Version | Previous Version | Text Only | Print | Product List | Glossary On
Versions: 1 2 3 4 5 6 7 8 9 10 11 12 13 14 15 16 17 18 19 20 21 22 23 24 25
000
FTUS44 KMEG 262011 AAA
TAFMEM
TAF AMD
KMEM 262011Z 2620/2718 18016G24KT P6SM VCSH SCT030 BKN040
     FM262300 18020G30KT P6SM VCTS SCT015CB OVC035
      TEMPO 2700/2702 26025G40KT 1SM +TSRA OVC009CB
     FM270300 24012G24KT P6SM VCSH BKN015
     FM270700 28013KT P6SM BKN018
      TEMPO 2707/2709 P6SM BKN007
     FM271200 25007KT P6SM FEW007 BKN015
     FM271400 28010KT P6SM SCT025=

USA.gov is the U.S. government's official web portal to all federal, state and local government web resources and services.